createdAt,value
2019-06-26T00:02:55.385Z,49.60
2019-06-26T00:05:59.687Z,49.70
2019-06-26T00:09:04.500Z,49.80
2019-06-26T00:12:08.878Z,49.80
2019-06-26T00:15:13.402Z,50.00
2019-06-26T00:18:17.775Z,50.00
2019-06-26T00:21:22.174Z,50.10
2019-06-26T00:24:26.922Z,50.20
2019-06-26T00:27:31.200Z,50.30
2019-06-26T00:30:35.508Z,50.40
2019-06-26T00:33:39.811Z,50.60
2019-06-26T00:36:44.152Z,51.10
2019-06-26T00:39:48.451Z,50.60
2019-06-26T00:42:52.836Z,50.70
2019-06-26T00:45:57.214Z,50.70
2019-06-26T00:49:01.533Z,50.70
2019-06-26T00:52:05.785Z,51.60
2019-06-26T00:55:10.222Z,50.90
2019-06-26T00:58:14.532Z,51.00
2019-06-26T01:01:18.864Z,51.10
2019-06-26T01:04:27.351Z,51.40
2019-06-26T01:07:31.679Z,51.40
2019-06-26T01:10:36.008Z,51.50
2019-06-26T01:13:40.368Z,51.70
2019-06-26T01:16:44.772Z,51.80
2019-06-26T01:19:49.047Z,52.10
2019-06-26T01:22:53.442Z,52.20
2019-06-26T01:25:57.733Z,52.30
2019-06-26T01:29:02.455Z,52.40
2019-06-26T01:32:06.701Z,52.40
2019-06-26T01:35:11.471Z,52.30
2019-06-26T01:38:15.803Z,52.30
2019-06-26T01:41:20.182Z,52.20
2019-06-26T01:44:24.561Z,52.20
2019-06-26T01:47:28.949Z,52.00
2019-06-26T01:50:33.331Z,51.80
2019-06-26T01:53:37.760Z,51.80
2019-06-26T01:56:42.053Z,51.80
2019-06-26T01:59:46.362Z,51.60
2019-06-26T02:02:50.643Z,51.70
2019-06-26T02:05:54.984Z,51.70
2019-06-26T02:09:00.183Z,51.60
2019-06-26T02:12:04.509Z,51.50
2019-06-26T02:15:09.636Z,51.50
2019-06-26T02:18:51.019Z,51.60
2019-06-26T02:21:55.312Z,51.70
2019-06-26T02:24:59.691Z,51.60
2019-06-26T02:28:04.613Z,51.70
2019-06-26T02:31:08.876Z,51.60
2019-06-26T02:34:13.258Z,51.70
2019-06-26T02:37:17.624Z,51.70
2019-06-26T02:40:22.255Z,51.60
2019-06-26T02:43:26.539Z,51.70
2019-06-26T02:46:30.907Z,51.70
2019-06-26T02:49:35.387Z,51.80
2019-06-26T02:52:39.692Z,52.00
2019-06-26T02:55:43.933Z,52.10
2019-06-26T02:58:48.442Z,52.20
2019-06-26T03:01:52.858Z,52.20
2019-06-26T03:04:57.088Z,52.40
2019-06-26T03:08:01.432Z,52.50
2019-06-26T03:11:05.771Z,52.50
2019-06-26T03:14:10.139Z,52.40
2019-06-26T03:17:14.495Z,52.40
2019-06-26T03:20:22.445Z,52.50
2019-06-26T03:23:29.741Z,52.30
2019-06-26T03:26:34.149Z,52.40
2019-06-26T03:29:38.967Z,52.50
2019-06-26T03:32:43.316Z,52.60
2019-06-26T03:35:47.700Z,52.70
2019-06-26T03:38:53.315Z,52.60
2019-06-26T03:41:57.631Z,52.90
2019-06-26T03:45:01.995Z,52.90
2019-06-26T03:48:06.692Z,53.00
2019-06-26T03:51:13.871Z,52.90
2019-06-26T03:54:17.159Z,52.90
2019-06-26T03:57:21.573Z,52.80
2019-06-26T04:00:33.756Z,52.90
2019-06-26T04:03:38.180Z,52.80
2019-06-26T04:06:42.556Z,52.70
2019-06-26T04:09:46.824Z,53.20
2019-06-26T04:12:51.143Z,52.90
2019-06-26T04:15:55.928Z,53.10
2019-06-26T04:19:00.393Z,53.20
2019-06-26T04:22:04.799Z,53.00
2019-06-26T04:25:09.551Z,52.60
2019-06-26T04:28:14.004Z,52.20
2019-06-26T04:31:18.341Z,51.80
2019-06-26T04:34:22.770Z,51.30
2019-06-26T04:37:27.387Z,50.90
2019-06-26T04:40:31.712Z,50.70
2019-06-26T04:43:36.002Z,50.30
2019-06-26T04:46:40.345Z,49.30
2019-06-26T04:49:44.695Z,48.40
2019-06-26T04:52:49.126Z,48.00
2019-06-26T04:55:53.474Z,47.90
2019-06-26T04:58:57.889Z,47.80
2019-06-26T05:02:02.490Z,47.80
2019-06-26T05:05:07.281Z,47.30
2019-06-26T05:08:11.604Z,46.70
2019-06-26T05:11:15.995Z,46.30
2019-06-26T05:14:20.355Z,45.90
2019-06-26T05:17:25.058Z,45.20
2019-06-26T05:20:29.271Z,45.10
2019-06-26T05:23:33.654Z,44.90
2019-06-26T05:26:38.161Z,44.30
2019-06-26T05:29:42.557Z,43.60
2019-06-26T05:32:46.873Z,43.80
2019-06-26T05:35:51.228Z,43.70
2019-06-26T05:38:55.534Z,43.40
2019-06-26T05:42:02.044Z,42.70
2019-06-26T05:45:07.102Z,42.30
2019-06-26T05:48:11.464Z,41.70
2019-06-26T05:51:15.881Z,41.50
2019-06-26T05:54:20.214Z,41.30
2019-06-26T05:57:24.529Z,40.80
2019-06-26T06:00:28.934Z,40.00
2019-06-26T06:03:33.298Z,39.70
2019-06-26T06:06:41.988Z,39.90
2019-06-26T06:09:43.683Z,40.10
2019-06-26T06:12:48.017Z,40.40
2019-06-26T06:15:52.412Z,40.30
2019-06-26T06:18:56.835Z,40.00
2019-06-26T06:22:01.223Z,39.50
2019-06-26T06:25:06.661Z,39.30
2019-06-26T06:28:11.065Z,39.30
2019-06-26T06:31:15.384Z,39.00
2019-06-26T06:34:20.672Z,38.80
2019-06-26T06:37:25.017Z,38.60
2019-06-26T06:40:29.393Z,38.30
2019-06-26T06:43:34.071Z,38.60
2019-06-26T06:46:38.388Z,38.30
2019-06-26T06:49:45.494Z,38.20
2019-06-26T06:52:50.117Z,37.40
2019-06-26T06:55:54.569Z,37.70
2019-06-26T06:58:58.950Z,37.60
2019-06-26T07:02:03.201Z,37.70
2019-06-26T07:05:07.689Z,37.60
2019-06-26T07:08:31.131Z,37.60
2019-06-26T07:11:35.570Z,37.20
2019-06-26T07:14:39.791Z,37.20
2019-06-26T07:17:44.102Z,37.10
2019-06-26T07:20:54.576Z,36.90
2019-06-26T07:23:58.955Z,36.60
2019-06-26T07:27:03.273Z,36.30
2019-06-26T07:30:08.409Z,36.10
2019-06-26T07:33:12.779Z,35.90
2019-06-26T07:36:20.957Z,35.70
2019-06-26T07:39:25.367Z,35.10
2019-06-26T07:42:29.701Z,35.20
2019-06-26T07:45:34.117Z,34.60
2019-06-26T07:48:38.382Z,34.90
2019-06-26T07:51:42.706Z,35.10
2019-06-26T07:54:46.997Z,34.80
2019-06-26T07:57:51.310Z,34.50
2019-06-26T08:00:55.697Z,34.60
2019-06-26T08:04:00.109Z,34.10
2019-06-26T08:07:04.416Z,33.90
2019-06-26T08:10:10.344Z,33.90
2019-06-26T08:13:14.745Z,33.50
2019-06-26T08:16:19.117Z,34.10
2019-06-26T08:19:23.388Z,33.80
2019-06-26T08:22:27.692Z,33.90
2019-06-26T08:25:32.010Z,33.70
2019-06-26T08:28:36.314Z,33.70
2019-06-26T08:31:43.845Z,33.40
2019-06-26T08:34:48.168Z,33.20
2019-06-26T08:38:05.707Z,33.40
2019-06-26T08:40:58.478Z,33.20
2019-06-26T08:44:02.762Z,33.30
2019-06-26T08:47:07.057Z,33.40
2019-06-26T08:50:11.775Z,33.80
2019-06-26T08:53:16.122Z,33.60
2019-06-26T08:56:20.417Z,33.50
2019-06-26T08:59:24.775Z,33.40
2019-06-26T09:02:29.151Z,33.30
2019-06-26T09:05:47.434Z,33.10
2019-06-26T09:08:39.605Z,33.00
2019-06-26T09:11:43.979Z,33.10
2019-06-26T09:14:48.285Z,33.20
2019-06-26T09:17:52.556Z,33.00
2019-06-26T09:20:56.889Z,33.10
2019-06-26T09:24:01.237Z,33.30
2019-06-26T09:27:05.598Z,32.80
2019-06-26T09:30:10.468Z,32.40
2019-06-26T09:33:14.824Z,32.30
2019-06-26T09:36:19.177Z,32.00
2019-06-26T09:39:23.525Z,32.10
2019-06-26T09:42:27.902Z,32.20
2019-06-26T09:45:32.218Z,32.00
2019-06-26T09:48:51.531Z,32.40
2019-06-26T09:51:42.635Z,32.30
2019-06-26T09:54:47.001Z,32.20
2019-06-26T09:57:51.315Z,32.30
2019-06-26T10:01:15.052Z,32.50
2019-06-26T10:04:19.430Z,31.90
2019-06-26T10:07:24.156Z,32.20
2019-06-26T10:10:28.362Z,31.60
2019-06-26T10:13:32.709Z,31.70
2019-06-26T10:16:36.991Z,31.70
2019-06-26T10:19:44.144Z,31.90
2019-06-26T10:22:48.554Z,31.60
2019-06-26T10:25:52.876Z,31.90
2019-06-26T10:28:57.181Z,31.60
2019-06-26T10:32:01.455Z,31.40
2019-06-26T10:35:06.303Z,31.50
2019-06-26T10:38:11.705Z,31.70
2019-06-26T10:41:16.059Z,32.00
2019-06-26T10:44:20.356Z,31.50
2019-06-26T10:47:24.655Z,31.20
2019-06-26T10:50:28.979Z,30.80
2019-06-26T10:53:33.382Z,30.80
2019-06-26T10:56:37.758Z,30.60
2019-06-26T10:59:42.061Z,30.90
2019-06-26T11:02:46.487Z,31.10
2019-06-26T11:05:50.869Z,31.10
2019-06-26T11:08:55.215Z,31.20
2019-06-26T11:11:59.529Z,30.60
2019-06-26T11:15:06.521Z,30.50
2019-06-26T11:18:10.811Z,30.50
2019-06-26T11:21:15.135Z,30.90
2019-06-26T11:24:19.453Z,31.00
2019-06-26T11:27:23.773Z,31.00
2019-06-26T11:30:29.547Z,31.00
2019-06-26T11:33:33.932Z,30.70
2019-06-26T11:36:38.697Z,30.80
2019-06-26T11:39:43.037Z,30.80
2019-06-26T11:42:47.432Z,30.90
2019-06-26T11:46:10.799Z,31.00
2019-06-26T11:49:26.403Z,31.30
2019-06-26T11:52:31.209Z,30.70
2019-06-26T11:55:35.573Z,30.50
2019-06-26T11:58:39.911Z,30.10
2019-06-26T12:01:44.239Z,30.00
2019-06-26T12:04:48.592Z,30.40
2019-06-26T12:07:52.850Z,30.20
2019-06-26T12:10:57.318Z,30.10
2019-06-26T12:14:01.694Z,30.20
2019-06-26T12:17:06.947Z,30.20
2019-06-26T12:20:18.477Z,30.80
2019-06-26T12:23:17.382Z,30.50
2019-06-26T12:26:21.814Z,30.10
2019-06-26T12:29:26.214Z,29.80
2019-06-26T12:32:30.665Z,29.80
2019-06-26T12:35:35.047Z,30.10
2019-06-26T12:38:39.392Z,30.00
2019-06-26T12:41:43.802Z,29.80
2019-06-26T12:44:48.201Z,29.90
2019-06-26T12:47:52.581Z,30.00
2019-06-26T12:51:15.967Z,29.70
2019-06-26T12:55:08.395Z,29.50
2019-06-26T12:58:16.286Z,29.50
2019-06-26T13:01:20.369Z,29.50
2019-06-26T13:04:24.890Z,29.30
2019-06-26T13:07:30.665Z,29.40
2019-06-26T13:11:44.309Z,29.10
2019-06-26T13:15:13.622Z,29.60
2019-06-26T13:33:05.485Z,29.40
2019-06-26T13:36:09.817Z,29.30
2019-06-26T13:39:14.259Z,29.10
2019-06-26T13:42:18.594Z,29.20
2019-06-26T13:45:22.917Z,29.30
2019-06-26T13:48:27.257Z,29.10
2019-06-26T13:51:33.820Z,28.90
2019-06-26T13:54:38.114Z,28.80
2019-06-26T13:57:42.455Z,28.90
2019-06-26T14:00:46.855Z,29.20
2019-06-26T14:03:51.111Z,29.30
2019-06-26T14:06:55.484Z,29.30
2019-06-26T14:09:59.667Z,29.10
2019-06-26T14:13:04.034Z,29.30
2019-06-26T14:16:08.739Z,29.30
2019-06-26T14:19:14.632Z,29.40
2019-06-26T14:22:19.043Z,29.30
2019-06-26T14:25:23.520Z,29.90
2019-06-26T14:28:27.841Z,30.00
2019-06-26T14:31:32.165Z,30.20
2019-06-26T14:34:36.556Z,30.10
2019-06-26T14:37:40.869Z,30.00
2019-06-26T14:40:45.283Z,30.90
2019-06-26T14:43:49.987Z,30.30
2019-06-26T14:46:54.387Z,30.40
2019-06-26T14:49:58.753Z,30.50
2019-06-26T14:53:06.125Z,30.40
2019-06-26T14:56:10.524Z,30.60
2019-06-26T14:59:17.616Z,30.50
2019-06-26T15:02:21.977Z,30.70
2019-06-26T15:05:26.281Z,30.80
2019-06-26T15:08:30.614Z,31.00
2019-06-26T15:11:35.023Z,31.30
2019-06-26T15:14:39.347Z,31.30
2019-06-26T15:17:43.666Z,31.30
2019-06-26T15:20:47.986Z,31.30
2019-06-26T15:23:52.303Z,31.30
2019-06-26T15:26:57.528Z,31.60
2019-06-26T15:30:01.922Z,31.60
2019-06-26T15:33:06.336Z,31.70
2019-06-26T15:36:10.689Z,31.80
2019-06-26T15:39:14.994Z,32.00
2019-06-26T15:42:19.350Z,32.20
2019-06-26T15:45:23.719Z,32.30
2019-06-26T15:48:28.385Z,32.40
2019-06-26T15:51:32.725Z,32.60
2019-06-26T15:54:37.066Z,32.50
2019-06-26T15:57:41.401Z,32.70
2019-06-26T16:00:46.382Z,32.90
2019-06-26T16:03:51.884Z,33.00
2019-06-26T16:06:56.191Z,33.00
2019-06-26T16:10:00.528Z,33.20
2019-06-26T16:13:05.019Z,33.30
2019-06-26T16:16:09.307Z,33.50
2019-06-26T16:19:16.432Z,33.50
2019-06-26T16:22:31.709Z,33.70
2019-06-26T16:25:27.027Z,33.60
2019-06-26T16:28:31.596Z,33.80
2019-06-26T16:31:36.929Z,33.80
2019-06-26T16:34:42.638Z,33.90
2019-06-26T16:37:46.960Z,33.60
2019-06-26T16:40:51.356Z,33.90
2019-06-26T16:43:55.681Z,33.90
2019-06-26T16:46:59.974Z,34.20
2019-06-26T16:50:04.502Z,34.10
2019-06-26T16:53:11.377Z,34.00
2019-06-26T16:56:18.298Z,34.20
2019-06-26T16:59:23.373Z,34.20
2019-06-26T17:02:28.033Z,34.20
2019-06-26T17:05:32.665Z,34.40
2019-06-26T17:08:37.014Z,34.40
2019-06-26T17:11:41.682Z,34.50
2019-06-26T17:14:46.404Z,34.50
2019-06-26T17:17:50.775Z,34.50
2019-06-26T17:20:55.078Z,34.50
2019-06-26T17:23:59.525Z,34.60
2019-06-26T17:27:04.191Z,34.80
2019-06-26T17:30:09.069Z,34.80
2019-06-26T17:33:13.771Z,34.70
2019-06-26T17:36:18.064Z,34.80
2019-06-26T17:39:22.899Z,34.80
2019-06-26T17:42:28.721Z,34.90
2019-06-26T17:45:33.118Z,34.60
2019-06-26T17:48:37.469Z,35.00
2019-06-26T17:51:41.774Z,35.10
2019-06-26T17:54:46.110Z,35.20
2019-06-26T17:57:50.754Z,35.30
2019-06-26T18:00:54.983Z,35.50
2019-06-26T18:04:00.180Z,35.60
2019-06-26T18:07:05.231Z,35.70
2019-06-26T18:10:15.710Z,36.50
2019-06-26T18:13:21.046Z,35.70
2019-06-26T18:16:28.432Z,35.90
2019-06-26T18:19:32.819Z,35.70
2019-06-26T18:22:37.215Z,36.20
2019-06-26T18:25:41.906Z,36.20
2019-06-26T18:28:46.573Z,36.30
2019-06-26T18:31:50.879Z,37.00
2019-06-26T18:34:55.181Z,36.50
2019-06-26T18:37:59.499Z,36.50
2019-06-26T18:41:03.910Z,36.80
2019-06-26T18:44:08.217Z,36.80
2019-06-26T18:47:12.531Z,36.90
2019-06-26T18:50:17.210Z,37.00
2019-06-26T18:53:21.566Z,37.20
2019-06-26T18:56:25.898Z,37.30
2019-06-26T18:59:30.342Z,37.50
2019-06-26T19:02:34.763Z,37.70
2019-06-26T19:05:39.140Z,37.80
2019-06-26T19:08:43.543Z,38.00
2019-06-26T19:11:48.788Z,38.20
2019-06-26T19:14:53.097Z,38.40
2019-06-26T19:17:57.408Z,38.90
2019-06-26T19:21:01.792Z,38.60
2019-06-26T19:24:10.561Z,38.80
2019-06-26T19:27:12.238Z,39.00
2019-06-26T19:30:16.596Z,39.10
2019-06-26T19:33:20.986Z,39.30
2019-06-26T19:36:28.546Z,39.40
2019-06-26T19:39:32.876Z,39.70
2019-06-26T19:42:37.233Z,39.60
2019-06-26T19:45:41.593Z,39.90
2019-06-26T19:48:47.988Z,40.20
2019-06-26T19:51:52.275Z,40.60
2019-06-26T19:54:56.630Z,40.60
2019-06-26T19:58:00.964Z,40.90
2019-06-26T20:01:05.321Z,41.30
2019-06-26T20:04:09.670Z,41.20
2019-06-26T20:07:13.998Z,41.40
2019-06-26T20:10:18.756Z,41.50
2019-06-26T20:13:23.426Z,41.90
2019-06-26T20:16:28.097Z,42.10
2019-06-26T20:19:33.573Z,42.50
2019-06-26T20:22:37.899Z,43.20
2019-06-26T20:25:42.179Z,43.10
2019-06-26T20:28:46.542Z,43.20
2019-06-26T20:31:51.126Z,43.10
2019-06-26T20:34:55.501Z,43.30
2019-06-26T20:37:59.792Z,43.30
2019-06-26T20:41:04.744Z,43.50
2019-06-26T20:44:09.259Z,43.50
2019-06-26T20:47:13.669Z,43.50
2019-06-26T20:50:18.118Z,43.80
2019-06-26T20:53:22.384Z,43.90
2019-06-26T20:56:26.749Z,43.90
2019-06-26T20:59:31.098Z,43.80
2019-06-26T21:02:35.478Z,43.80
2019-06-26T21:05:40.843Z,43.90
2019-06-26T21:08:45.138Z,43.90
2019-06-26T21:11:49.475Z,43.80
2019-06-26T21:14:53.796Z,43.80
2019-06-26T21:17:58.194Z,43.80
2019-06-26T21:21:02.489Z,43.90
2019-06-26T21:24:06.826Z,44.00
2019-06-26T21:27:11.209Z,44.00
2019-06-26T21:30:15.628Z,44.00
2019-06-26T21:33:19.956Z,44.10
2019-06-26T21:36:24.333Z,44.20
2019-06-26T21:39:28.728Z,44.30
2019-06-26T21:42:33.152Z,44.40
2019-06-26T21:45:37.532Z,44.60
2019-06-26T21:48:41.886Z,44.60
2019-06-26T21:51:46.268Z,44.80
2019-06-26T21:54:50.668Z,44.80
2019-06-26T21:57:54.970Z,44.80
2019-06-26T22:01:00.230Z,44.90
2019-06-26T22:04:04.624Z,45.00
2019-06-26T22:07:08.993Z,45.00
2019-06-26T22:10:15.543Z,45.10
2019-06-26T22:13:19.821Z,45.40
2019-06-26T22:16:24.231Z,45.40
2019-06-26T22:19:29.041Z,45.40
2019-06-26T22:22:33.403Z,45.40
2019-06-26T22:25:50.254Z,45.60
2019-06-26T22:28:43.855Z,45.70
2019-06-26T22:31:48.231Z,45.80
2019-06-26T22:34:52.549Z,45.80
2019-06-26T22:37:56.806Z,45.80
2019-06-26T22:41:01.193Z,45.80
2019-06-26T22:44:05.556Z,46.00
2019-06-26T22:47:09.971Z,46.00
2019-06-26T22:50:14.591Z,45.90
2019-06-26T22:53:19.106Z,46.10
2019-06-26T22:56:23.471Z,46.10
2019-06-26T22:59:27.821Z,46.10
2019-06-26T23:02:32.256Z,46.30
2019-06-26T23:05:37.556Z,46.40
2019-06-26T23:08:43.493Z,46.50
2019-06-26T23:11:47.922Z,46.20
2019-06-26T23:14:52.249Z,46.60
2019-06-26T23:17:57.021Z,46.80
2019-06-26T23:21:01.375Z,46.90
2019-06-26T23:24:05.697Z,46.90
2019-06-26T23:27:10.040Z,47.00
2019-06-26T23:30:18.649Z,47.00
2019-06-26T23:33:23.031Z,47.20
2019-06-26T23:36:27.403Z,47.20
2019-06-26T23:39:31.816Z,47.20
2019-06-26T23:42:36.234Z,47.40
2019-06-26T23:45:40.527Z,47.40
2019-06-26T23:48:45.885Z,47.50
2019-06-26T23:51:50.338Z,47.60
2019-06-26T23:54:54.714Z,47.70
2019-06-26T23:57:59.771Z,47.80
